sensor_id;sensor_type;location;lat;lon;timestamp;temperature;humidity
62589;DHT22;58504;48.770;9.148;2023-07-13T21:17:31;23.40;47.90
62589;DHT22;58504;48.770;9.148;2023-07-13T21:19:59;23.30;48.60
62589;DHT22;58504;48.770;9.148;2023-07-13T21:22:26;23.40;48.90
62589;DHT22;58504;48.770;9.148;2023-07-13T21:24:53;23.60;49.10
62589;DHT22;58504;48.770;9.148;2023-07-13T21:27:20;23.70;49.30
62589;DHT22;58504;48.770;9.148;2023-07-13T21:29:47;23.80;49.50
62589;DHT22;58504;48.770;9.148;2023-07-13T21:32:21;24.00;49.50
62589;DHT22;58504;48.770;9.148;2023-07-13T21:34:51;24.10;49.50
62589;DHT22;58504;48.770;9.148;2023-07-13T21:37:18;24.20;49.60
62589;DHT22;58504;48.770;9.148;2023-07-13T21:39:49;24.20;50.20
62589;DHT22;58504;48.770;9.148;2023-07-13T21:42:17;24.30;49.70
62589;DHT22;58504;48.770;9.148;2023-07-13T21:44:44;24.30;49.70
62589;DHT22;58504;48.770;9.148;2023-07-13T21:47:11;24.40;49.80
62589;DHT22;58504;48.770;9.148;2023-07-13T21:49:37;24.50;49.80
62589;DHT22;58504;48.770;9.148;2023-07-13T21:52:14;24.50;49.90
62589;DHT22;58504;48.770;9.148;2023-07-13T21:54:42;24.60;50.00
62589;DHT22;58504;48.770;9.148;2023-07-13T21:57:13;24.60;49.80
62589;DHT22;58504;48.770;9.148;2023-07-13T21:59:41;24.60;49.80
62589;DHT22;58504;48.770;9.148;2023-07-13T22:02:10;24.70;49.90
62589;DHT22;58504;48.770;9.148;2023-07-13T22:04:38;24.70;49.90
62589;DHT22;58504;48.770;9.148;2023-07-13T22:07:07;24.70;49.90
62589;DHT22;58504;48.770;9.148;2023-07-13T22:09:36;24.80;49.90
62589;DHT22;58504;48.770;9.148;2023-07-13T22:12:04;24.80;49.90
62589;DHT22;58504;48.770;9.148;2023-07-13T22:14:33;24.80;50.00
62589;DHT22;58504;48.770;9.148;2023-07-13T22:17:00;24.90;50.60
62589;DHT22;58504;48.770;9.148;2023-07-13T22:19:29;24.90;50.10
62589;DHT22;58504;48.770;9.148;2023-07-13T22:21:56;24.90;50.00
62589;DHT22;58504;48.770;9.148;2023-07-13T22:24:23;24.90;50.10
62589;DHT22;58504;48.770;9.148;2023-07-13T22:26:51;24.90;50.10
62589;DHT22;58504;48.770;9.148;2023-07-13T22:29:19;24.90;50.10
62589;DHT22;58504;48.770;9.148;2023-07-13T22:31:49;25.00;50.20
62589;DHT22;58504;48.770;9.148;2023-07-13T22:34:17;25.00;50.30
62589;DHT22;58504;48.770;9.148;2023-07-13T22:36:45;25.00;50.30
62589;DHT22;58504;48.770;9.148;2023-07-13T22:39:14;25.00;50.20
62589;DHT22;58504;48.770;9.148;2023-07-13T22:41:42;25.00;50.30
62589;DHT22;58504;48.770;9.148;2023-07-13T22:44:18;25.00;50.30
62589;DHT22;58504;48.770;9.148;2023-07-13T22:46:45;25.00;50.30
62589;DHT22;58504;48.770;9.148;2023-07-13T22:49:18;25.10;50.30
62589;DHT22;58504;48.770;9.148;2023-07-13T22:51:45;25.10;49.90
62589;DHT22;58504;48.770;9.148;2023-07-13T22:54:12;25.00;49.20
62589;DHT22;58504;48.770;9.148;2023-07-13T22:56:40;25.00;49.40
62589;DHT22;58504;48.770;9.148;2023-07-13T22:59:06;25.00;49.90
62589;DHT22;58504;48.770;9.148;2023-07-13T23:01:37;25.10;49.90
62589;DHT22;58504;48.770;9.148;2023-07-13T23:04:17;25.10;50.70
62589;DHT22;58504;48.770;9.148;2023-07-13T23:06:46;25.10;50.20
62589;DHT22;58504;48.770;9.148;2023-07-13T23:09:17;25.10;50.30
62589;DHT22;58504;48.770;9.148;2023-07-13T23:11:45;25.10;50.30
62589;DHT22;58504;48.770;9.148;2023-07-13T23:14:11;25.10;50.20
62589;DHT22;58504;48.770;9.148;2023-07-13T23:16:40;25.10;50.20
62589;DHT22;58504;48.770;9.148;2023-07-13T23:19:12;25.10;50.10
62589;DHT22;58504;48.770;9.148;2023-07-13T23:21:43;25.10;50.20
62589;DHT22;58504;48.770;9.148;2023-07-13T23:24:13;25.10;50.10
62589;DHT22;58504;48.770;9.148;2023-07-13T23:26:39;25.10;50.10
62589;DHT22;58504;48.770;9.148;2023-07-13T23:29:06;25.10;50.10
62589;DHT22;58504;48.770;9.148;2023-07-13T23:31:33;25.10;50.10
62589;DHT22;58504;48.770;9.148;2023-07-13T23:34:04;25.10;50.10
62589;DHT22;58504;48.770;9.148;2023-07-13T23:36:32;25.10;50.10
62589;DHT22;58504;48.770;9.148;2023-07-13T23:38:59;25.10;50.10
62589;DHT22;58504;48.770;9.148;2023-07-13T23:41:26;25.10;50.10
62589;DHT22;58504;48.770;9.148;2023-07-13T23:43:53;25.10;50.20
62589;DHT22;58504;48.770;9.148;2023-07-13T23:46:26;25.10;50.10
62589;DHT22;58504;48.770;9.148;2023-07-13T23:48:58;25.20;50.20
62589;DHT22;58504;48.770;9.148;2023-07-13T23:51:27;25.20;50.20
62589;DHT22;58504;48.770;9.148;2023-07-13T23:53:55;25.20;50.20
62589;DHT22;58504;48.770;9.148;2023-07-13T23:56:23;25.20;50.20
62589;DHT22;58504;48.770;9.148;2023-07-13T23:58:50;25.20;50.30
